createdAt,value
2023-02-22T00:00:43.955Z,91.33
2023-02-22T00:03:15.293Z,92.00
2023-02-22T00:05:47.007Z,89.83
2023-02-22T00:08:16.972Z,86.00
2023-02-22T00:10:46.247Z,85.80
2023-02-22T00:13:15.787Z,88.47
2023-02-22T00:15:44.346Z,88.90
2023-02-22T00:18:14.422Z,88.80
2023-02-22T00:20:42.314Z,85.53
2023-02-22T00:23:15.610Z,83.43
2023-02-22T00:25:43.421Z,81.30
2023-02-22T00:28:12.947Z,86.53
2023-02-22T00:30:43.632Z,80.47
2023-02-22T00:33:12.619Z,83.73
2023-02-22T00:35:40.632Z,83.77
2023-02-22T00:38:08.942Z,85.50
2023-02-22T00:40:36.788Z,82.40
2023-02-22T00:43:06.054Z,82.73
2023-02-22T00:45:40.224Z,84.03
2023-02-22T00:48:10.097Z,86.40
2023-02-22T00:50:38.554Z,82.07
2023-02-22T00:53:07.384Z,81.50
2023-02-22T00:55:36.478Z,82.20
2023-02-22T00:58:05.480Z,85.37
2023-02-22T01:00:35.082Z,81.90
2023-02-22T01:03:02.900Z,83.67
2023-02-22T01:05:33.176Z,79.07
2023-02-22T01:08:02.516Z,83.10
2023-02-22T01:10:32.022Z,80.10
2023-02-22T01:13:00.956Z,82.17
2023-02-22T01:15:31.657Z,81.13
2023-02-22T01:18:00.882Z,82.53
2023-02-22T01:20:30.242Z,82.10
2023-02-22T01:23:01.119Z,81.97
2023-02-22T01:25:30.612Z,85.93
2023-02-22T01:27:59.662Z,88.43
2023-02-22T01:30:29.860Z,85.93
2023-02-22T01:32:58.027Z,84.90
2023-02-22T01:35:29.062Z,86.83
2023-02-22T01:37:57.758Z,91.77
2023-02-22T01:40:29.609Z,87.10
2023-02-22T01:42:59.836Z,87.30
2023-02-22T01:48:15.850Z,86.00
2023-02-22T01:50:46.486Z,85.63
2023-02-22T01:53:17.738Z,91.40
2023-02-22T01:55:47.827Z,89.47
2023-02-22T01:58:17.919Z,87.73
2023-02-22T02:00:48.123Z,83.43
2023-02-22T02:03:20.050Z,83.67
2023-02-22T02:05:48.482Z,84.17
2023-02-22T02:08:24.408Z,86.60
2023-02-22T02:10:54.803Z,89.90
2023-02-22T02:13:22.809Z,88.10
2023-02-22T02:15:52.942Z,88.47
2023-02-22T02:18:20.738Z,89.47
2023-02-22T02:21:05.060Z,90.97
2023-02-22T02:24:00.595Z,89.83
2023-02-22T02:26:52.976Z,90.07
2023-02-22T02:29:57.298Z,86.13
2023-02-22T02:32:36.869Z,86.93
2023-02-22T02:35:06.221Z,91.50
2023-02-22T02:37:38.278Z,86.70
2023-02-22T02:40:13.307Z,88.60
2023-02-22T02:42:44.773Z,88.10
2023-02-22T02:45:15.412Z,84.93
2023-02-22T02:47:47.587Z,88.87
2023-02-22T02:50:18.375Z,83.67
2023-02-22T02:52:46.929Z,91.90
2023-02-22T02:55:15.415Z,90.37
2023-02-22T02:57:43.291Z,87.27
2023-02-22T03:00:22.516Z,89.43
2023-02-22T03:02:59.939Z,84.10
2023-02-22T03:05:39.884Z,83.70
2023-02-22T03:08:13.217Z,82.10
2023-02-22T03:10:50.338Z,83.77
2023-02-22T03:13:24.754Z,83.97
2023-02-22T03:15:57.080Z,76.93
2023-02-22T03:18:30.239Z,80.23
2023-02-22T03:21:02.445Z,82.50
2023-02-22T03:23:34.001Z,81.93
2023-02-22T03:26:05.001Z,77.87
2023-02-22T03:28:34.029Z,78.37
2023-02-22T03:31:05.430Z,77.97
2023-02-22T03:33:40.789Z,79.37
2023-02-22T03:36:12.883Z,75.33
2023-02-22T03:38:41.728Z,77.53
2023-02-22T03:41:10.399Z,75.07
2023-02-22T03:43:40.927Z,78.20
2023-02-22T03:46:11.087Z,78.83
2023-02-22T03:48:45.156Z,77.07
2023-02-22T03:51:16.685Z,78.47
2023-02-22T03:53:45.666Z,78.47
2023-02-22T03:56:16.463Z,75.20
2023-02-22T03:58:46.018Z,78.60
2023-02-22T04:01:14.468Z,74.30
2023-02-22T04:03:43.926Z,75.90
2023-02-22T04:06:11.888Z,78.37
2023-02-22T04:08:39.730Z,84.87
2023-02-22T04:11:07.513Z,80.53
2023-02-22T04:13:35.340Z,81.97
2023-02-22T04:16:03.154Z,79.10
2023-02-22T04:18:31.063Z,76.67
2023-02-22T04:21:00.214Z,82.30
2023-02-22T04:23:28.063Z,77.97
2023-02-22T04:25:56.078Z,78.20
2023-02-22T04:28:23.933Z,81.33
2023-02-22T04:30:51.891Z,77.63
2023-02-22T04:33:19.779Z,80.30
2023-02-22T04:35:47.644Z,76.80
2023-02-22T04:38:16.791Z,81.00
2023-02-22T04:40:44.635Z,80.80
2023-02-22T04:43:12.356Z,83.50
2023-02-22T04:48:19.662Z,81.07
2023-02-22T04:50:47.922Z,85.37
2023-02-22T04:53:17.143Z,87.93
2023-02-22T04:55:44.934Z,83.27
2023-02-22T04:58:12.755Z,79.90
2023-02-22T05:00:40.730Z,81.00
2023-02-22T05:03:08.961Z,80.13
2023-02-22T05:05:36.744Z,77.53
2023-02-22T05:08:04.689Z,77.67
2023-02-22T05:10:33.853Z,79.97
2023-02-22T05:13:03.837Z,80.10
2023-02-22T05:15:31.889Z,77.77
2023-02-22T05:18:00.710Z,80.50
2023-02-22T05:20:30.670Z,80.10
2023-02-22T05:22:59.114Z,78.73
2023-02-22T05:25:27.180Z,78.50
2023-02-22T05:27:58.498Z,80.20
2023-02-22T05:30:28.598Z,79.87
2023-02-22T05:32:56.372Z,75.77
2023-02-22T05:35:24.693Z,75.93
2023-02-22T05:37:52.584Z,77.70
2023-02-22T05:40:23.963Z,73.23
2023-02-22T05:42:52.198Z,73.87
2023-02-22T05:45:22.841Z,75.40
2023-02-22T05:47:50.773Z,72.43
2023-02-22T05:50:19.776Z,72.57
2023-02-22T05:52:48.665Z,70.30
2023-02-22T05:55:17.698Z,71.53
2023-02-22T05:57:45.751Z,71.10
2023-02-22T06:00:18.109Z,73.20
2023-02-22T06:02:47.434Z,69.67
2023-02-22T06:05:15.180Z,70.63
2023-02-22T06:07:42.906Z,68.47
2023-02-22T06:10:10.789Z,64.70
2023-02-22T06:12:38.515Z,64.57
2023-02-22T06:15:07.058Z,63.37
2023-02-22T06:17:34.895Z,63.50
2023-02-22T06:20:04.297Z,61.00
2023-02-22T06:22:32.088Z,60.83
2023-02-22T06:24:59.882Z,60.83
2023-02-22T06:27:27.696Z,63.57
2023-02-22T06:29:55.557Z,63.53
2023-02-22T06:32:23.426Z,61.63
2023-02-22T06:34:51.217Z,61.40
2023-02-22T06:37:20.512Z,62.23
2023-02-22T06:39:48.296Z,62.53
2023-02-22T06:42:16.160Z,61.80
2023-02-22T06:44:44.098Z,62.93
2023-02-22T06:47:11.893Z,65.60
2023-02-22T06:49:39.686Z,63.87
2023-02-22T06:52:08.248Z,60.87
2023-02-22T06:54:39.906Z,68.43
2023-02-22T06:57:08.512Z,64.90
2023-02-22T06:59:36.326Z,64.00
2023-02-22T07:02:04.235Z,65.23
2023-02-22T07:04:32.078Z,62.80
2023-02-22T07:06:59.841Z,61.40
2023-02-22T07:09:27.642Z,59.10
2023-02-22T07:11:57.027Z,59.90
2023-02-22T07:14:24.997Z,62.13
2023-02-22T07:16:52.727Z,58.63
2023-02-22T07:19:20.747Z,59.53
2023-02-22T07:21:49.138Z,58.23
2023-02-22T07:24:17.901Z,58.43
2023-02-22T07:26:45.761Z,54.70
2023-02-22T07:29:14.936Z,54.23
2023-02-22T07:31:42.741Z,50.87
2023-02-22T07:34:10.529Z,49.73
2023-02-22T07:36:38.351Z,49.23
2023-02-22T07:39:08.717Z,50.07
2023-02-22T07:41:36.652Z,49.93
2023-02-22T07:44:04.571Z,45.83
2023-02-22T07:46:33.931Z,42.87
2023-02-22T07:49:01.754Z,39.50
2023-02-22T07:51:29.576Z,39.77
2023-02-22T07:53:57.458Z,37.70
2023-02-22T07:56:25.219Z,36.37
2023-02-22T07:58:53.673Z,34.07
2023-02-22T08:01:21.563Z,38.20
2023-02-22T08:03:50.872Z,36.70
2023-02-22T08:06:18.922Z,36.17
2023-02-22T08:08:46.674Z,35.87
2023-02-22T08:11:14.785Z,33.30
2023-02-22T08:13:42.675Z,34.20
2023-02-22T08:16:10.422Z,33.50
2023-02-22T08:18:41.029Z,31.20
2023-02-22T08:21:10.238Z,32.03
2023-02-22T08:23:38.941Z,33.10
2023-02-22T08:26:08.466Z,31.80
2023-02-22T08:28:36.508Z,31.70
2023-02-22T08:31:07.232Z,33.47
2023-02-22T08:33:35.570Z,33.17
2023-02-22T08:36:03.521Z,35.03
2023-02-22T08:38:34.039Z,35.27
2023-02-22T08:41:01.920Z,34.20
2023-02-22T08:43:30.047Z,34.40
2023-02-22T08:45:58.025Z,36.03
2023-02-22T08:48:27.205Z,37.67
2023-02-22T08:50:55.024Z,36.13
2023-02-22T08:53:22.929Z,37.13
2023-02-22T08:55:53.488Z,35.90
2023-02-22T08:58:21.273Z,38.60
2023-02-22T09:00:51.222Z,38.77
2023-02-22T09:03:19.165Z,36.17
2023-02-22T09:05:47.010Z,41.10
2023-02-22T09:08:14.877Z,39.40
2023-02-22T09:10:42.845Z,38.00
2023-02-22T09:13:12.624Z,39.80
2023-02-22T09:15:40.761Z,41.07
2023-02-22T09:18:14.658Z,41.17
2023-02-22T09:20:42.991Z,39.73
2023-02-22T09:23:10.840Z,37.70
2023-02-22T09:25:40.877Z,39.43
2023-02-22T09:28:09.221Z,40.00
2023-02-22T09:30:40.799Z,37.53
2023-02-22T09:33:13.402Z,39.40
2023-02-22T09:35:46.293Z,37.27
2023-02-22T09:38:15.791Z,37.77
2023-02-22T09:40:49.448Z,39.97
2023-02-22T09:43:28.571Z,39.23
2023-02-22T09:46:12.067Z,41.27
2023-02-22T09:48:51.537Z,40.83
2023-02-22T09:51:20.680Z,37.90
2023-02-22T09:53:50.830Z,43.23
2023-02-22T09:56:21.282Z,43.33
2023-02-22T09:58:52.283Z,41.37
2023-02-22T10:01:28.012Z,42.63
2023-02-22T10:04:01.470Z,42.23
2023-02-22T10:06:29.679Z,42.20
2023-02-22T10:09:00.711Z,42.17
2023-02-22T10:11:40.558Z,41.27
2023-02-22T10:14:44.104Z,41.70
2023-02-22T10:17:19.351Z,42.97
2023-02-22T10:19:54.984Z,45.37
2023-02-22T10:22:44.425Z,43.33
2023-02-22T10:25:14.137Z,43.33
2023-02-22T10:27:47.867Z,43.40
2023-02-22T10:30:27.876Z,44.00
2023-02-22T10:33:02.564Z,43.37
2023-02-22T10:35:32.173Z,44.80
2023-02-22T10:38:05.408Z,45.93
2023-02-22T10:40:33.535Z,46.93
2023-02-22T10:43:05.551Z,46.07
2023-02-22T10:45:37.110Z,43.47
2023-02-22T10:48:11.499Z,46.53
2023-02-22T10:50:40.960Z,46.30
2023-02-22T10:53:09.372Z,45.80
2023-02-22T10:55:38.016Z,43.93
2023-02-22T10:58:07.718Z,44.77
2023-02-22T11:00:37.573Z,46.60
2023-02-22T11:03:16.310Z,45.20
2023-02-22T11:05:44.234Z,43.97
2023-02-22T11:08:17.388Z,42.17
2023-02-22T11:10:45.407Z,46.30
2023-02-22T11:13:25.831Z,47.83
2023-02-22T11:15:54.202Z,46.37
2023-02-22T11:18:29.563Z,45.70
2023-02-22T11:21:01.999Z,44.87
2023-02-22T11:23:30.336Z,41.27
2023-02-22T11:26:08.374Z,45.37
2023-02-22T11:28:37.214Z,44.73
2023-02-22T11:31:14.564Z,49.90
2023-02-22T11:33:52.588Z,47.47
2023-02-22T11:36:37.887Z,41.20
2023-02-22T11:39:11.516Z,46.30
2023-02-22T11:41:39.449Z,43.33
2023-02-22T11:44:21.561Z,40.00
2023-02-22T11:46:49.458Z,42.63
2023-02-22T11:49:20.078Z,42.67
2023-02-22T11:52:01.461Z,44.73
2023-02-22T11:54:43.438Z,44.13
2023-02-22T11:57:22.217Z,45.50
2023-02-22T12:00:09.723Z,45.37
2023-02-22T12:02:56.975Z,46.03
2023-02-22T12:05:40.598Z,44.70
2023-02-22T12:08:19.677Z,44.57
2023-02-22T12:10:56.458Z,42.40
2023-02-22T12:13:32.946Z,43.07
2023-02-22T12:16:09.948Z,42.10
2023-02-22T12:18:42.248Z,44.23
2023-02-22T12:21:16.882Z,41.57
2023-02-22T12:23:47.039Z,43.63
2023-02-22T12:26:20.154Z,44.93
2023-02-22T12:28:52.805Z,43.80
2023-02-22T12:31:23.708Z,42.20
2023-02-22T12:33:56.536Z,45.33
2023-02-22T12:36:32.878Z,42.70
2023-02-22T12:39:07.463Z,40.17
2023-02-22T12:41:38.798Z,41.60
2023-02-22T12:44:10.307Z,44.20
2023-02-22T12:46:46.601Z,46.80
2023-02-22T12:49:18.716Z,43.97
2023-02-22T12:51:53.110Z,45.70
2023-02-22T12:54:26.652Z,44.97
2023-02-22T12:56:57.376Z,47.90
2023-02-22T12:59:30.846Z,45.37
2023-02-22T13:02:02.038Z,45.60
2023-02-22T13:04:31.923Z,48.37
2023-02-22T13:07:18.136Z,48.07
2023-02-22T13:09:57.532Z,48.17
2023-02-22T13:12:29.821Z,46.67
2023-02-22T13:15:03.900Z,47.47
2023-02-22T13:17:39.766Z,46.10
2023-02-22T13:20:11.645Z,46.50
2023-02-22T13:22:45.174Z,47.70
2023-02-22T13:25:16.552Z,45.63
2023-02-22T13:27:47.685Z,44.67
2023-02-22T13:30:20.204Z,44.47
2023-02-22T13:33:05.200Z,45.97
2023-02-22T13:35:55.347Z,42.50
2023-02-22T13:38:52.605Z,42.67
2023-02-22T13:41:30.928Z,43.53
2023-02-22T13:44:20.500Z,42.93
2023-02-22T13:49:51.501Z,42.27
2023-02-22T13:52:21.797Z,44.73
2023-02-22T13:54:54.614Z,42.57
2023-02-22T13:57:24.973Z,43.43
2023-02-22T14:00:22.844Z,42.50
2023-02-22T14:03:00.936Z,42.60
2023-02-22T14:05:53.224Z,45.87
2023-02-22T14:08:43.016Z,44.83
2023-02-22T14:11:56.787Z,46.57
2023-02-22T14:14:26.121Z,42.73
2023-02-22T14:17:18.927Z,42.67
2023-02-22T14:20:14.777Z,43.77
2023-02-22T14:22:43.505Z,45.63
2023-02-22T14:25:43.971Z,43.70
2023-02-22T14:28:42.895Z,44.43
2023-02-22T14:31:29.300Z,45.33
2023-02-22T14:34:06.196Z,43.07
2023-02-22T14:36:36.717Z,44.50
2023-02-22T14:39:10.568Z,44.83
2023-02-22T14:41:39.712Z,43.80
2023-02-22T14:44:12.851Z,44.20
2023-02-22T14:46:43.722Z,42.67
2023-02-22T14:49:18.934Z,42.47
2023-02-22T14:51:55.899Z,42.13
2023-02-22T14:54:27.974Z,42.40
2023-02-22T14:57:12.101Z,41.63
2023-02-22T14:59:51.366Z,42.53
2023-02-22T15:02:22.762Z,41.70
2023-02-22T15:04:54.560Z,42.10
2023-02-22T15:07:27.278Z,41.53
2023-02-22T15:10:17.800Z,40.97
2023-02-22T15:12:53.630Z,41.70
2023-02-22T15:15:22.866Z,43.33
2023-02-22T15:17:56.320Z,44.97
2023-02-22T15:20:25.204Z,41.07
2023-02-22T15:22:53.371Z,41.00
2023-02-22T15:25:26.747Z,42.73
2023-02-22T15:27:54.606Z,41.23
2023-02-22T15:30:26.814Z,42.60
2023-02-22T15:33:04.090Z,43.07
2023-02-22T15:35:33.900Z,41.50
2023-02-22T15:38:03.690Z,43.13
2023-02-22T15:40:33.276Z,43.97
2023-02-22T15:43:02.544Z,42.20
2023-02-22T15:45:32.329Z,45.77
2023-02-22T15:48:01.685Z,44.60
2023-02-22T15:50:32.290Z,43.80
2023-02-22T15:53:03.012Z,43.53
2023-02-22T15:55:33.065Z,42.87
2023-02-22T15:58:02.755Z,44.50
2023-02-22T16:00:36.270Z,43.30
2023-02-22T16:03:06.248Z,44.97
2023-02-22T16:05:39.572Z,47.40
2023-02-22T16:08:16.037Z,44.10
2023-02-22T16:10:50.148Z,44.00
2023-02-22T16:13:31.658Z,43.73
2023-02-22T16:16:02.865Z,42.80
2023-02-22T16:18:34.920Z,43.30
2023-02-22T16:21:06.320Z,42.73
2023-02-22T16:23:44.932Z,41.00
2023-02-22T16:26:24.870Z,42.03
2023-02-22T16:28:54.340Z,39.27
2023-02-22T16:31:22.945Z,40.97
2023-02-22T16:33:53.005Z,41.67
2023-02-22T16:36:21.393Z,39.43
2023-02-22T16:38:49.811Z,43.00
2023-02-22T16:41:19.845Z,41.87
2023-02-22T16:43:50.781Z,41.70
2023-02-22T16:46:20.111Z,40.80
2023-02-22T16:48:48.195Z,43.33
2023-02-22T16:51:22.329Z,45.30
2023-02-22T16:53:50.904Z,44.67
2023-02-22T16:56:21.194Z,44.13
2023-02-22T16:58:52.753Z,45.53
2023-02-22T17:01:23.377Z,48.07
2023-02-22T17:03:53.914Z,49.30
2023-02-22T17:06:23.606Z,51.87
2023-02-22T17:08:52.677Z,51.07
2023-02-22T17:11:20.728Z,47.07
2023-02-22T17:13:51.790Z,47.80
2023-02-22T17:16:19.915Z,51.73
2023-02-22T17:18:48.125Z,48.37
2023-02-22T17:21:16.671Z,47.93
2023-02-22T17:23:47.034Z,48.43
2023-02-22T17:26:15.799Z,46.30
2023-02-22T17:28:44.272Z,47.87
2023-02-22T17:31:20.797Z,48.87
2023-02-22T17:33:48.579Z,51.47
2023-02-22T17:36:16.761Z,54.70
2023-02-22T17:38:46.312Z,55.13
2023-02-22T17:41:14.100Z,57.60
2023-02-22T17:43:41.890Z,60.27
2023-02-22T17:46:09.941Z,62.37
2023-02-22T17:48:38.274Z,63.00
2023-02-22T17:51:07.218Z,61.80
2023-02-22T17:53:35.500Z,62.70
2023-02-22T17:56:08.503Z,58.10
2023-02-22T17:58:36.547Z,54.17
2023-02-22T18:01:05.116Z,52.47
2023-02-22T18:03:33.338Z,53.73
2023-02-22T18:06:01.999Z,50.70
2023-02-22T18:08:31.204Z,51.30
2023-02-22T18:11:02.081Z,53.17
2023-02-22T18:13:31.454Z,52.00
2023-02-22T18:16:00.612Z,48.77
2023-02-22T18:18:28.659Z,52.90
2023-02-22T18:20:59.679Z,52.83
2023-02-22T18:23:28.944Z,49.83
2023-02-22T18:26:10.181Z,48.53
2023-02-22T18:28:41.055Z,47.10
2023-02-22T18:31:10.294Z,48.73
2023-02-22T18:33:38.223Z,46.83
2023-02-22T18:36:06.935Z,49.73
2023-02-22T18:38:34.775Z,47.73
2023-02-22T18:41:03.480Z,49.40
2023-02-22T18:43:34.146Z,48.17
2023-02-22T18:46:12.420Z,48.33
2023-02-22T18:48:40.620Z,50.77
2023-02-22T18:51:10.320Z,49.33
2023-02-22T18:53:38.656Z,51.10
2023-02-22T18:56:07.226Z,49.33
2023-02-22T18:58:35.109Z,50.53
2023-02-22T19:01:03.349Z,52.23
2023-02-22T19:03:33.264Z,48.23
2023-02-22T19:06:02.928Z,51.07
2023-02-22T19:08:32.575Z,47.70
2023-02-22T19:11:06.906Z,50.00
2023-02-22T19:13:36.105Z,49.43
2023-02-22T19:16:04.810Z,48.13
2023-02-22T19:18:34.117Z,51.40
2023-02-22T19:21:03.997Z,51.07
2023-02-22T19:23:34.397Z,53.97
2023-02-22T19:26:03.531Z,50.87
2023-02-22T19:28:34.157Z,55.80
2023-02-22T19:31:12.520Z,57.37
2023-02-22T19:33:41.996Z,55.17
2023-02-22T19:36:10.370Z,54.40
2023-02-22T19:38:38.413Z,57.83
2023-02-22T19:41:10.726Z,54.93
2023-02-22T19:43:38.486Z,53.27
2023-02-22T19:46:06.895Z,54.63
2023-02-22T19:48:35.058Z,54.90
2023-02-22T19:51:06.304Z,52.57
2023-02-22T19:53:34.360Z,54.07
2023-02-22T19:56:05.668Z,53.70
2023-02-22T19:58:36.641Z,53.80
2023-02-22T20:01:12.174Z,54.57
2023-02-22T20:03:41.014Z,56.00
2023-02-22T20:06:10.663Z,56.70
2023-02-22T20:08:42.177Z,54.90
2023-02-22T20:11:10.748Z,58.60
2023-02-22T20:13:38.754Z,55.40
2023-02-22T20:27:28.861Z,45.37
2023-02-22T20:29:56.651Z,47.97
2023-02-22T20:32:24.626Z,49.77
2023-02-22T20:34:52.731Z,48.07
2023-02-22T20:37:21.610Z,51.43
2023-02-22T20:39:51.155Z,55.77
2023-02-22T20:42:19.106Z,54.47
2023-02-22T20:44:50.579Z,54.20
2023-02-22T20:47:18.478Z,54.30
2023-02-22T20:49:46.289Z,54.33
2023-02-22T20:52:14.024Z,56.43
2023-02-22T20:54:41.918Z,57.57
2023-02-22T20:57:09.831Z,58.57
2023-02-22T20:59:37.652Z,58.33
2023-02-22T21:02:06.873Z,60.10
2023-02-22T21:04:34.691Z,59.47
2023-02-22T21:07:03.079Z,58.17
2023-02-22T21:09:32.433Z,57.37
2023-02-22T21:12:00.170Z,57.57
2023-02-22T21:14:29.542Z,58.33
2023-02-22T21:16:57.632Z,59.97
2023-02-22T21:19:26.745Z,60.33
2023-02-22T21:21:55.758Z,62.47
2023-02-22T21:24:24.578Z,59.20
2023-02-22T21:26:53.112Z,58.83
2023-02-22T21:29:21.049Z,57.87
2023-02-22T21:31:48.986Z,61.67
2023-02-22T21:34:17.565Z,64.87
2023-02-22T21:36:47.535Z,61.63
2023-02-22T21:39:19.301Z,61.17
2023-02-22T21:41:48.440Z,59.73
2023-02-22T21:44:16.727Z,61.67
2023-02-22T21:46:48.787Z,62.57
2023-02-22T21:49:16.838Z,62.80
2023-02-22T21:51:46.130Z,60.30
2023-02-22T21:54:13.946Z,60.57
2023-02-22T21:56:43.423Z,63.20
2023-02-22T21:59:13.277Z,66.50
2023-02-22T22:01:46.962Z,62.73
2023-02-22T22:04:18.820Z,66.10
2023-02-22T22:06:50.079Z,60.27
2023-02-22T22:09:22.232Z,62.03
2023-02-22T22:11:51.339Z,62.80
2023-02-22T22:14:19.763Z,65.53
2023-02-22T22:16:48.791Z,67.93
2023-02-22T22:19:16.808Z,67.47
2023-02-22T22:21:46.638Z,60.93
2023-02-22T22:24:15.898Z,62.13
2023-02-22T22:26:44.376Z,61.77
2023-02-22T22:29:12.263Z,58.23
2023-02-22T22:31:40.241Z,59.60
2023-02-22T22:34:08.089Z,58.47
2023-02-22T22:36:36.425Z,56.40
2023-02-22T22:39:12.924Z,56.33
2023-02-22T22:41:44.146Z,54.63
2023-02-22T22:44:12.399Z,54.90
2023-02-22T22:46:40.956Z,54.13
2023-02-22T22:49:09.811Z,58.60
2023-02-22T22:51:38.229Z,56.20
2023-02-22T22:54:06.739Z,54.53
2023-02-22T22:56:36.333Z,52.50
2023-02-22T22:59:09.162Z,51.37
2023-02-22T23:01:39.308Z,52.13
2023-02-22T23:04:09.380Z,49.70
2023-02-22T23:06:40.031Z,51.30
2023-02-22T23:09:11.433Z,53.80
2023-02-22T23:11:44.337Z,52.13
2023-02-22T23:14:16.083Z,49.20
2023-02-22T23:16:45.376Z,49.80
2023-02-22T23:19:15.451Z,48.60
2023-02-22T23:21:44.230Z,50.53
2023-02-22T23:24:15.170Z,49.37
2023-02-22T23:26:48.340Z,50.60
2023-02-22T23:29:18.595Z,50.53
2023-02-22T23:31:48.480Z,50.50
2023-02-22T23:34:17.012Z,50.13
2023-02-22T23:36:45.188Z,53.70
2023-02-22T23:39:14.220Z,47.07
2023-02-22T23:41:42.423Z,50.53
2023-02-22T23:44:13.951Z,48.00
2023-02-22T23:46:44.631Z,48.43
2023-02-22T23:49:15.399Z,50.93
2023-02-22T23:51:44.562Z,47.20
2023-02-22T23:54:14.465Z,47.90
2023-02-22T23:56:53.615Z,49.10
2023-02-22T23:59:23.568Z,51.13
